Time;durP1;ratioP1;P1;durP2;ratioP2;P2;SDS_P1;SDS_P2;PMS_P1;PMS_P2;Temp;Humidity;BMP_temperature;BMP_pressure;BME280_temperature;BME280_humidity;BME280_pressure;Samples;Min_cycle;Max_cycle;Signal;HPM_P1;HPM_P2
2021/04/29 00:02:25;;;;;;;3.33;2.30;;;;;;;;;;5091202;28;20180;-65
2021/04/29 00:04:51;;;;;;;2.20;2.00;;;;;;;;;;5090421;28;20176;-63
2021/04/29 00:07:17;;;;;;;2.67;2.30;;;;;;;;;;5091076;28;20207;-63
2021/04/29 00:09:43;;;;;;;4.37;2.30;;;;;;;;;;5070839;28;20175;-64
2021/04/29 00:12:09;;;;;;;2.90;2.20;;;;;;;;;;5091275;28;20554;-64
2021/04/29 00:14:36;;;;;;;2.20;2.00;;;;;;;;;;5072450;28;20203;-64
2021/04/29 00:17:02;;;;;;;2.40;2.20;;;;;;;;;;5072059;28;20180;-63
2021/04/29 00:19:28;;;;;;;2.37;2.13;;;;;;;;;;5090997;28;20699;-64
2021/04/29 00:21:54;;;;;;;2.53;2.10;;;;;;;;;;5090142;28;20198;-65
2021/04/29 00:24:21;;;;;;;1.90;1.80;;;;;;;;;;5089633;28;20180;-63
2021/04/29 00:26:47;;;;;;;2.87;2.17;;;;;;;;;;5072940;28;20670;-62
2021/04/29 00:29:13;;;;;;;2.07;1.87;;;;;;;;;;5062746;28;20192;-63
2021/04/29 00:31:39;;;;;;;2.50;2.30;;;;;;;;;;5089498;28;20210;-63
2021/04/29 00:34:05;;;;;;;3.63;2.20;;;;;;;;;;5090000;28;20250;-64
2021/04/29 00:36:32;;;;;;;3.27;2.10;;;;;;;;;;5090975;28;20184;-63
2021/04/29 00:38:58;;;;;;;2.10;1.90;;;;;;;;;;5090289;28;20263;-62
2021/04/29 00:41:24;;;;;;;2.20;1.90;;;;;;;;;;5089676;28;20658;-62
2021/04/29 00:43:51;;;;;;;3.93;2.33;;;;;;;;;;5090143;28;20202;-64
2021/04/29 00:46:17;;;;;;;2.30;2.10;;;;;;;;;;5069398;28;20175;-62
2021/04/29 00:48:44;;;;;;;2.50;2.30;;;;;;;;;;5072438;28;20643;-61
2021/04/29 00:51:10;;;;;;;2.77;2.00;;;;;;;;;;5089441;28;20188;-64
2021/04/29 00:53:38;;;;;;;2.20;2.00;;;;;;;;;;5089873;28;20692;-63
2021/04/29 00:56:05;;;;;;;3.27;2.37;;;;;;;;;;5090683;28;20168;-61
2021/04/29 00:58:31;;;;;;;2.30;2.10;;;;;;;;;;5072534;28;20267;-62
2021/04/29 01:00:57;;;;;;;2.27;2.07;;;;;;;;;;5090153;28;20567;-62
2021/04/29 01:03:39;;;;;;;3.00;2.43;;;;;;;;;;5086792;28;20183;-62
2021/04/29 01:06:12;;;;;;;2.30;2.10;;;;;;;;;;5071552;28;20176;-62
2021/04/29 01:08:51;;;;;;;4.97;2.20;;;;;;;;;;5071961;28;20184;-63
2021/04/29 01:11:19;;;;;;;3.63;2.47;;;;;;;;;;5067194;28;20504;-62
2021/04/29 01:13:49;;;;;;;2.80;2.60;;;;;;;;;;5071626;28;20203;-64
2021/04/29 01:16:16;;;;;;;2.67;2.40;;;;;;;;;;5090146;28;20179;-63
2021/04/29 01:18:42;;;;;;;4.27;2.20;;;;;;;;;;5090733;28;20179;-65
2021/04/29 01:21:14;;;;;;;2.70;2.20;;;;;;;;;;5090343;28;20695;-62
2021/04/29 01:23:56;;;;;;;3.40;2.30;;;;;;;;;;5092646;28;20203;-62
2021/04/29 01:26:36;;;;;;;3.30;2.40;;;;;;;;;;5075824;28;20179;-61
2021/04/29 01:29:09;;;;;;;2.37;2.17;;;;;;;;;;5093952;28;20179;-62
2021/04/29 01:31:36;;;;;;;4.57;2.20;;;;;;;;;;5094226;28;20183;-62
2021/04/29 01:34:03;;;;;;;3.43;2.00;;;;;;;;;;5093993;28;20241;-61
2021/04/29 01:36:30;;;;;;;2.47;1.83;;;;;;;;;;5093089;28;20195;-62
2021/04/29 01:38:58;;;;;;;2.37;2.17;;;;;;;;;;5093975;28;20187;-62
2021/04/29 01:41:24;;;;;;;2.10;1.90;;;;;;;;;;5093791;28;20175;-62
2021/04/29 01:43:51;;;;;;;2.30;2.00;;;;;;;;;;5093378;28;20269;-62
2021/04/29 01:46:17;;;;;;;3.13;2.17;;;;;;;;;;5074976;28;20171;-62
2021/04/29 01:48:43;;;;;;;2.53;2.03;;;;;;;;;;5092674;28;20819;-62
2021/04/29 01:51:10;;;;;;;2.30;2.00;;;;;;;;;;5093238;28;20188;-62
2021/04/29 01:53:36;;;;;;;2.45;2.08;;;;;;;;;;5091906;28;20490;-65
2021/04/29 01:56:02;;;;;;;3.40;2.20;;;;;;;;;;5093410;28;20684;-64
2021/04/29 01:58:28;;;;;;;3.90;3.40;;;;;;;;;;5092079;28;20171;-63
2021/04/29 02:00:54;;;;;;;1.97;1.80;;;;;;;;;;5091290;28;20164;-63
2021/04/29 02:03:20;;;;;;;2.97;2.30;;;;;;;;;;5092201;28;20199;-62
2021/04/29 02:05:46;;;;;;;5.00;2.33;;;;;;;;;;5093044;28;20194;-63
2021/04/29 02:08:12;;;;;;;2.40;2.20;;;;;;;;;;5075006;28;20236;-63
2021/04/29 02:10:39;;;;;;;3.03;2.30;;;;;;;;;;5092993;28;20184;-63
2021/04/29 02:13:08;;;;;;;3.83;2.60;;;;;;;;;;5093207;28;20266;-63
2021/04/29 02:15:38;;;;;;;3.17;2.37;;;;;;;;;;5092358;28;20176;-64
2021/04/29 02:18:15;;;;;;;3.80;2.07;;;;;;;;;;5075250;28;20220;-62
2021/04/29 02:20:42;;;;;;;3.87;2.60;;;;;;;;;;5074405;28;20187;-65
2021/04/29 02:23:10;;;;;;;2.70;2.50;;;;;;;;;;5093012;28;20188;-63
2021/04/29 02:25:36;;;;;;;3.93;2.80;;;;;;;;;;5092361;28;20179;-65
2021/04/29 02:28:03;;;;;;;4.07;3.07;;;;;;;;;;5092495;28;20171;-61
2021/04/29 02:30:29;;;;;;;4.93;3.23;;;;;;;;;;5092679;28;20646;-62
2021/04/29 02:32:55;;;;;;;3.07;2.80;;;;;;;;;;5073963;28;20187;-61
2021/04/29 02:35:21;;;;;;;3.10;2.83;;;;;;;;;;5092107;28;20175;-61
2021/04/29 02:37:48;;;;;;;3.93;3.10;;;;;;;;;;5092877;28;20171;-63
2021/04/29 02:40:15;;;;;;;3.27;2.90;;;;;;;;;;5071480;28;20176;-62
2021/04/29 02:42:42;;;;;;;5.93;3.30;;;;;;;;;;5091739;28;20176;-61
2021/04/29 02:45:10;;;;;;;3.83;3.50;;;;;;;;;;5091913;28;20176;-62
2021/04/29 02:47:40;;;;;;;4.07;3.27;;;;;;;;;;5092531;28;20175;-61
2021/04/29 02:50:09;;;;;;;5.47;3.47;;;;;;;;;;5092270;28;20609;-62
2021/04/29 02:52:35;;;;;;;4.30;3.30;;;;;;;;;;5092849;28;20539;-61
2021/04/29 02:55:01;;;;;;;5.77;3.90;;;;;;;;;;5089875;28;20213;-64
2021/04/29 02:57:27;;;;;;;3.93;3.40;;;;;;;;;;5092283;28;20186;-62
2021/04/29 02:59:53;;;;;;;3.87;3.20;;;;;;;;;;5091796;28;20527;-61
2021/04/29 03:02:20;;;;;;;5.60;3.30;;;;;;;;;;5091993;28;20179;-61
2021/04/29 03:04:46;;;;;;;5.03;4.00;;;;;;;;;;5073945;28;20207;-63
2021/04/29 03:07:12;;;;;;;6.20;3.50;;;;;;;;;;5091766;28;20179;-64
2021/04/29 03:09:38;;;;;;;4.40;4.00;;;;;;;;;;5091546;28;20199;-61
2021/04/29 03:12:05;;;;;;;5.80;3.50;;;;;;;;;;5073829;28;20171;-61
2021/04/29 03:14:31;;;;;;;3.13;2.83;;;;;;;;;;5091554;28;20670;-61
2021/04/29 03:16:57;;;;;;;5.50;3.80;;;;;;;;;;5073185;28;20198;-62
2021/04/29 03:19:23;;;;;;;3.97;3.57;;;;;;;;;;5091475;28;20211;-62
2021/04/29 03:21:49;;;;;;;3.90;3.60;;;;;;;;;;5070849;28;20183;-62
2021/04/29 03:24:15;;;;;;;4.10;3.40;;;;;;;;;;5090854;28;20188;-62
2021/04/29 03:26:41;;;;;;;3.93;3.47;;;;;;;;;;5074262;28;20634;-61
2021/04/29 03:29:07;;;;;;;3.60;3.30;;;;;;;;;;5072985;28;20180;-62
2021/04/29 03:31:33;;;;;;;6.20;4.20;;;;;;;;;;5091066;28;20230;-62
2021/04/29 03:33:59;;;;;;;4.67;3.87;;;;;;;;;;5091057;28;20730;-61
2021/04/29 03:36:25;;;;;;;5.17;3.67;;;;;;;;;;5090391;28;20176;-61
2021/04/29 03:38:53;;;;;;;4.20;3.27;;;;;;;;;;5090813;28;20187;-61
2021/04/29 03:41:19;;;;;;;6.00;4.00;;;;;;;;;;5072821;28;20499;-61
2021/04/29 03:43:45;;;;;;;5.13;3.97;;;;;;;;;;5091261;28;20179;-61
2021/04/29 03:46:11;;;;;;;4.83;4.27;;;;;;;;;;5091125;28;20175;-61
2021/04/29 03:48:37;;;;;;;5.00;4.50;;;;;;;;;;5090707;28;20180;-62
2021/04/29 03:51:03;;;;;;;5.80;4.70;;;;;;;;;;5090568;28;20264;-61
2021/04/29 03:53:29;;;;;;;4.83;4.30;;;;;;;;;;5091111;28;20559;-61
2021/04/29 03:55:57;;;;;;;5.67;4.70;;;;;;;;;;5091258;28;20190;-61
2021/04/29 03:58:23;;;;;;;5.67;4.80;;;;;;;;;;5088279;28;20513;-61
2021/04/29 04:00:49;;;;;;;6.20;4.30;;;;;;;;;;5090537;28;20203;-63
2021/04/29 04:03:15;;;;;;;4.77;4.10;;;;;;;;;;5072990;28;20179;-62
2021/04/29 04:05:41;;;;;;;5.00;4.50;;;;;;;;;;5072760;28;20172;-62
2021/04/29 04:08:07;;;;;;;6.07;4.90;;;;;;;;;;5072918;28;20249;-63
2021/04/29 04:10:33;;;;;;;6.13;5.07;;;;;;;;;;5090033;28;20627;-61
2021/04/29 04:12:59;;;;;;;4.73;4.33;;;;;;;;;;5089905;28;20312;-61
2021/04/29 04:15:25;;;;;;;5.77;4.53;;;;;;;;;;5087766;28;20187;-62
2021/04/29 04:17:51;;;;;;;6.90;5.30;;;;;;;;;;5072014;28;20633;-62
2021/04/29 04:20:18;;;;;;;6.17;5.57;;;;;;;;;;5072642;28;20188;-62
2021/04/29 04:22:44;;;;;;;6.13;5.47;;;;;;;;;;5072642;28;20615;-62
2021/04/29 04:25:10;;;;;;;6.97;6.10;;;;;;;;;;5086883;28;20214;-61
2021/04/29 04:27:36;;;;;;;6.80;6.10;;;;;;;;;;5089585;28;20642;-62
2021/04/29 04:30:03;;;;;;;7.83;6.00;;;;;;;;;;5070759;28;20172;-61
2021/04/29 04:32:29;;;;;;;6.77;6.07;;;;;;;;;;5070785;28;20181;-62
2021/04/29 04:34:55;;;;;;;7.23;5.73;;;;;;;;;;5078044;28;20215;-62
2021/04/29 04:37:21;;;;;;;6.97;5.53;;;;;;;;;;5089348;28;20569;-62
2021/04/29 04:39:47;;;;;;;8.07;5.27;;;;;;;;;;5087972;28;20179;-62
2021/04/29 04:42:13;;;;;;;7.20;6.47;;;;;;;;;;5072550;28;20222;-62
2021/04/29 04:44:39;;;;;;;8.47;5.83;;;;;;;;;;5072360;28;20204;-61
2021/04/29 04:47:05;;;;;;;6.50;5.67;;;;;;;;;;5071622;28;20669;-61
2021/04/29 04:49:31;;;;;;;8.47;6.90;;;;;;;;;;5072004;28;20290;-62
2021/04/29 04:51:57;;;;;;;7.10;6.20;;;;;;;;;;5089167;28;20225;-62
2021/04/29 04:54:25;;;;;;;7.97;6.93;;;;;;;;;;5085109;28;20219;-62
2021/04/29 04:56:51;;;;;;;7.07;6.17;;;;;;;;;;5073418;28;20183;-61
2021/04/29 04:59:17;;;;;;;6.03;5.17;;;;;;;;;;5093196;28;20172;-62
2021/04/29 05:01:43;;;;;;;6.43;5.47;;;;;;;;;;5075764;28;20191;-64
2021/04/29 05:04:09;;;;;;;7.30;5.90;;;;;;;;;;5085322;28;20533;-63
2021/04/29 05:06:35;;;;;;;7.10;5.90;;;;;;;;;;5076383;28;20639;-62
2021/04/29 05:09:02;;;;;;;7.20;6.47;;;;;;;;;;5078416;28;20179;-62
2021/04/29 05:11:28;;;;;;;8.33;6.50;;;;;;;;;;5076277;28;20184;-64
2021/04/29 05:13:54;;;;;;;7.03;5.57;;;;;;;;;;5076269;28;20265;-61
2021/04/29 05:16:20;;;;;;;7.27;5.80;;;;;;;;;;5094122;28;20191;-61
2021/04/29 05:18:46;;;;;;;9.33;6.97;;;;;;;;;;5074715;28;20211;-62
2021/04/29 05:21:12;;;;;;;7.63;6.13;;;;;;;;;;5085159;28;20269;-62
2021/04/29 05:23:38;;;;;;;8.23;6.17;;;;;;;;;;5086005;28;20223;-63
2021/04/29 05:26:04;;;;;;;7.97;5.77;;;;;;;;;;5072965;28;20264;-63
2021/04/29 05:28:30;;;;;;;7.10;5.90;;;;;;;;;;5072640;28;20211;-62
2021/04/29 05:30:56;;;;;;;9.43;6.77;;;;;;;;;;5090103;28;20272;-61
2021/04/29 05:33:22;;;;;;;8.93;7.60;;;;;;;;;;5069538;28;20223;-62
2021/04/29 05:35:48;;;;;;;7.00;6.27;;;;;;;;;;5087529;28;20588;-63
2021/04/29 05:38:14;;;;;;;7.53;6.20;;;;;;;;;;5089238;28;20627;-63
2021/04/29 05:40:40;;;;;;;11.00;6.90;;;;;;;;;;5067980;28;20180;-62
2021/04/29 05:43:06;;;;;;;8.07;7.07;;;;;;;;;;5071038;28;20184;-62
2021/04/29 05:45:32;;;;;;;8.17;6.90;;;;;;;;;;5084650;28;20183;-63
2021/04/29 05:47:59;;;;;;;8.00;7.20;;;;;;;;;;5094206;28;20179;-63
2021/04/29 05:50:25;;;;;;;8.97;5.93;;;;;;;;;;5073184;28;20703;-61
2021/04/29 05:52:51;;;;;;;7.90;6.50;;;;;;;;;;5056650;28;20619;-62
2021/04/29 05:55:17;;;;;;;9.50;6.37;;;;;;;;;;5068060;28;20212;-61
2021/04/29 05:57:43;;;;;;;7.00;6.00;;;;;;;;;;5090580;28;20223;-63
2021/04/29 06:00:09;;;;;;;8.40;6.90;;;;;;;;;;5069013;28;20180;-63
2021/04/29 06:02:35;;;;;;;9.80;7.00;;;;;;;;;;5083408;28;20225;-64
2021/04/29 06:05:01;;;;;;;8.83;7.07;;;;;;;;;;5090523;28;20186;-64
2021/04/29 06:07:27;;;;;;;7.80;6.77;;;;;;;;;;5083686;28;20185;-66
2021/04/29 06:09:53;;;;;;;7.50;6.70;;;;;;;;;;5062435;28;20234;-64
2021/04/29 06:12:19;;;;;;;8.80;7.90;;;;;;;;;;5085193;28;20172;-64
2021/04/29 06:14:45;;;;;;;8.10;7.17;;;;;;;;;;5065379;28;20579;-64
2021/04/29 06:17:12;;;;;;;9.93;7.60;;;;;;;;;;5063938;28;20182;-63
2021/04/29 06:19:38;;;;;;;9.10;7.30;;;;;;;;;;5087361;28;20189;-63
2021/04/29 06:22:04;;;;;;;11.17;8.73;;;;;;;;;;5086571;28;20179;-64
2021/04/29 06:24:30;;;;;;;9.80;8.10;;;;;;;;;;5089457;28;20192;-64
2021/04/29 06:26:56;;;;;;;9.53;7.90;;;;;;;;;;5074238;28;20192;-63
2021/04/29 06:29:22;;;;;;;10.90;8.17;;;;;;;;;;5071015;28;20191;-64
2021/04/29 06:31:48;;;;;;;10.40;7.60;;;;;;;;;;5080530;28;20176;-65
2021/04/29 06:34:14;;;;;;;9.27;7.80;;;;;;;;;;5078941;28;20315;-65
2021/04/29 06:36:41;;;;;;;10.27;7.73;;;;;;;;;;5088304;28;20180;-63
2021/04/29 06:39:07;;;;;;;9.77;7.40;;;;;;;;;;5091712;28;20217;-63
2021/04/29 06:41:33;;;;;;;8.20;7.13;;;;;;;;;;5092722;28;20164;-64
2021/04/29 06:43:59;;;;;;;8.30;7.47;;;;;;;;;;5091698;28;20187;-63
2021/04/29 06:46:25;;;;;;;10.13;7.27;;;;;;;;;;5093917;28;20752;-64
2021/04/29 06:48:51;;;;;;;9.80;8.03;;;;;;;;;;5091629;28;20219;-63
2021/04/29 06:51:18;;;;;;;10.40;7.47;;;;;;;;;;5074941;28;20267;-64
2021/04/29 06:53:43;;;;;;;11.37;9.37;;;;;;;;;;5091958;28;20662;-63
2021/04/29 06:56:10;;;;;;;9.10;8.20;;;;;;;;;;5081719;28;20259;-63
2021/04/29 06:58:36;;;;;;;8.60;7.60;;;;;;;;;;5078952;28;20191;-62
2021/04/29 07:01:02;;;;;;;11.07;8.27;;;;;;;;;;5093038;28;20160;-63
2021/04/29 07:03:28;;;;;;;10.10;8.73;;;;;;;;;;5092570;28;20240;-63
2021/04/29 07:05:55;;;;;;;7.77;6.97;;;;;;;;;;5092421;28;20544;-64
2021/04/29 07:08:21;;;;;;;9.77;7.97;;;;;;;;;;5091174;28;20187;-63
2021/04/29 07:10:48;;;;;;;8.70;7.27;;;;;;;;;;5090765;28;20665;-64
2021/04/29 07:13:14;;;;;;;8.10;7.30;;;;;;;;;;5086720;28;21065;-63
2021/04/29 07:15:40;;;;;;;8.07;7.27;;;;;;;;;;5092506;28;20187;-63
2021/04/29 07:18:09;;;;;;;7.83;6.87;;;;;;;;;;5060641;28;20177;-63
2021/04/29 07:20:36;;;;;;;8.83;7.50;;;;;;;;;;5090650;28;20176;-64
2021/04/29 07:23:02;;;;;;;8.53;7.37;;;;;;;;;;5091664;28;20306;-63
2021/04/29 07:25:28;;;;;;;9.27;8.00;;;;;;;;;;5091902;28;20259;-63
2021/04/29 07:27:54;;;;;;;10.17;7.90;;;;;;;;;;5091621;28;20556;-63
2021/04/29 07:30:20;;;;;;;10.33;8.00;;;;;;;;;;5057342;28;20184;-63
2021/04/29 07:32:46;;;;;;;10.87;7.30;;;;;;;;;;5071652;28;20226;-63
2021/04/29 07:35:13;;;;;;;8.87;7.80;;;;;;;;;;5072834;28;20249;-63
2021/04/29 07:37:39;;;;;;;10.50;7.20;;;;;;;;;;5091662;28;20172;-63
2021/04/29 07:40:05;;;;;;;8.93;8.03;;;;;;;;;;5083776;28;20212;-64
2021/04/29 07:42:31;;;;;;;12.17;10.90;;;;;;;;;;5066793;28;20651;-64
2021/04/29 07:44:57;;;;;;;12.40;9.33;;;;;;;;;;5088234;28;20539;-64
2021/04/29 07:47:23;;;;;;;14.33;9.53;;;;;;;;;;5080967;28;20179;-64
2021/04/29 07:49:49;;;;;;;10.27;9.10;;;;;;;;;;5091586;28;20569;-63
2021/04/29 07:52:15;;;;;;;11.10;9.47;;;;;;;;;;5091809;28;20194;-65
2021/04/29 07:54:42;;;;;;;11.30;10.07;;;;;;;;;;5071920;28;20227;-64
2021/04/29 07:57:08;;;;;;;11.53;10.40;;;;;;;;;;5068536;28;20575;-63
2021/04/29 07:59:34;;;;;;;15.07;10.67;;;;;;;;;;5089174;28;20191;-64
2021/04/29 08:02:00;;;;;;;13.40;10.80;;;;;;;;;;5063773;28;20267;-63
2021/04/29 08:04:29;;;;;;;18.47;14.67;;;;;;;;;;5083194;28;20179;-63
2021/04/29 08:06:55;;;;;;;18.83;15.80;;;;;;;;;;5089348;28;20310;-63
2021/04/29 08:09:21;;;;;;;15.03;12.67;;;;;;;;;;5089865;28;20183;-63
2021/04/29 08:11:47;;;;;;;23.73;16.60;;;;;;;;;;5087579;28;20180;-63
2021/04/29 08:14:13;;;;;;;19.20;15.47;;;;;;;;;;5083413;28;20200;-63
2021/04/29 08:16:39;;;;;;;21.97;17.43;;;;;;;;;;5071001;28;20582;-63
2021/04/29 08:19:05;;;;;;;21.80;15.83;;;;;;;;;;5083038;28;20221;-66
2021/04/29 08:21:31;;;;;;;22.77;17.77;;;;;;;;;;5082625;28;20226;-63
2021/04/29 08:23:58;;;;;;;19.40;17.30;;;;;;;;;;5086970;28;20579;-64
2021/04/29 08:26:24;;;;;;;21.43;16.93;;;;;;;;;;5084499;28;20171;-63
2021/04/29 08:28:50;;;;;;;23.60;19.27;;;;;;;;;;5090474;28;20195;-63
2021/04/29 08:31:16;;;;;;;24.20;19.23;;;;;;;;;;5085570;28;20259;-65
2021/04/29 08:33:42;;;;;;;25.33;20.13;;;;;;;;;;5088183;28;20717;-62
2021/04/29 08:36:08;;;;;;;27.97;22.03;;;;;;;;;;5055592;28;20628;-63
2021/04/29 08:38:35;;;;;;;21.97;19.20;;;;;;;;;;5077321;28;20187;-63
2021/04/29 08:41:02;;;;;;;28.87;21.57;;;;;;;;;;5076031;28;20233;-64
2021/04/29 08:43:28;;;;;;;24.40;20.20;;;;;;;;;;5056891;28;20195;-64
2021/04/29 08:45:54;;;;;;;24.90;21.80;;;;;;;;;;5083001;28;20573;-62
2021/04/29 08:48:24;;;;;;;26.47;21.93;;;;;;;;;;5089248;28;20180;-62
2021/04/29 08:50:50;;;;;;;29.80;21.63;;;;;;;;;;5089825;28;20206;-64
2021/04/29 08:53:16;;;;;;;25.77;21.30;;;;;;;;;;5078932;28;20665;-64
2021/04/29 08:55:43;;;;;;;29.03;21.17;;;;;;;;;;5083539;28;20198;-63
2021/04/29 08:58:09;;;;;;;24.90;21.13;;;;;;;;;;5085453;28;20506;-63
2021/04/29 09:00:36;;;;;;;24.53;21.70;;;;;;;;;;5085678;28;20176;-63
2021/04/29 09:03:02;;;;;;;24.87;21.43;;;;;;;;;;5059991;28;20534;-65
2021/04/29 09:05:32;;;;;;;23.03;19.67;;;;;;;;;;5059800;28;20279;-63
2021/04/29 09:08:02;;;;;;;26.40;21.03;;;;;;;;;;5085467;28;20171;-63
2021/04/29 09:10:30;;;;;;;25.73;22.50;;;;;;;;;;5086556;28;20180;-63
2021/04/29 09:12:56;;;;;;;23.67;20.90;;;;;;;;;;5070335;28;20544;-66
2021/04/29 09:15:23;;;;;;;24.57;21.90;;;;;;;;;;5089973;28;20202;-62
2021/04/29 09:18:08;;;;;;;27.57;21.27;;;;;;;;;;5085038;28;20177;-62
2021/04/29 09:20:35;;;;;;;24.00;19.53;;;;;;;;;;5082067;28;20176;-62
2021/04/29 09:23:03;;;;;;;21.83;19.43;;;;;;;;;;5090173;28;20176;-65
2021/04/29 09:25:30;;;;;;;21.97;19.00;;;;;;;;;;5077251;28;20185;-62
2021/04/29 09:27:56;;;;;;;21.20;18.50;;;;;;;;;;5070382;28;20207;-66
2021/04/29 09:30:26;;;;;;;20.60;18.37;;;;;;;;;;5090218;28;20176;-63
2021/04/29 09:32:52;;;;;;;21.00;18.80;;;;;;;;;;5089980;28;20195;-63
2021/04/29 09:35:22;;;;;;;23.90;18.93;;;;;;;;;;5089712;28;20199;-62
2021/04/29 09:37:48;;;;;;;20.23;16.90;;;;;;;;;;5071067;28;20187;-62
2021/04/29 09:40:28;;;;;;;23.20;20.80;;;;;;;;;;5088324;28;20408;-63
2021/04/29 09:42:55;;;;;;;20.07;18.07;;;;;;;;;;5090752;28;20176;-62
2021/04/29 09:45:27;;;;;;;20.83;18.47;;;;;;;;;;5093605;28;20187;-64
2021/04/29 09:48:19;;;;;;;19.80;16.87;;;;;;;;;;5075071;28;20171;-63
2021/04/29 09:50:48;;;;;;;19.20;16.30;;;;;;;;;;5075213;28;20210;-63
2021/04/29 09:53:16;;;;;;;18.90;16.63;;;;;;;;;;5093211;28;20179;-63
2021/04/29 09:55:44;;;;;;;17.57;15.67;;;;;;;;;;5074288;28;20639;-63
2021/04/29 09:58:14;;;;;;;17.87;15.67;;;;;;;;;;5075125;28;20646;-63
2021/04/29 10:00:41;;;;;;;21.80;16.70;;;;;;;;;;5093386;28;20316;-64
2021/04/29 10:03:07;;;;;;;18.00;16.10;;;;;;;;;;5093552;28;20694;-63
2021/04/29 10:05:36;;;;;;;17.80;15.17;;;;;;;;;;5093293;28;20593;-63
2021/04/29 10:08:03;;;;;;;18.63;15.47;;;;;;;;;;5093028;28;20175;-63
2021/04/29 10:10:32;;;;;;;17.10;14.27;;;;;;;;;;5091612;28;20190;-62
2021/04/29 10:12:59;;;;;;;18.10;15.60;;;;;;;;;;5092767;28;20266;-62
2021/04/29 10:15:25;;;;;;;18.37;15.90;;;;;;;;;;5092207;28;20208;-62
2021/04/29 10:17:51;;;;;;;19.60;16.43;;;;;;;;;;5092544;28;20641;-63
2021/04/29 10:20:17;;;;;;;19.87;16.03;;;;;;;;;;5072909;28;20461;-63
2021/04/29 10:22:44;;;;;;;17.87;15.47;;;;;;;;;;5090437;28;20176;-62
2021/04/29 10:25:10;;;;;;;20.07;16.27;;;;;;;;;;5092210;28;20179;-62
2021/04/29 10:27:43;;;;;;;19.23;15.97;;;;;;;;;;5093105;28;20691;-63
2021/04/29 10:30:10;;;;;;;18.10;15.40;;;;;;;;;;5092454;28;20241;-62
2021/04/29 10:32:37;;;;;;;15.43;13.93;;;;;;;;;;5092551;28;20176;-62
2021/04/29 10:35:15;;;;;;;18.43;14.33;;;;;;;;;;5072352;28;20229;-62
2021/04/29 10:37:53;;;;;;;16.93;14.07;;;;;;;;;;5068502;28;20168;-62
2021/04/29 10:40:30;;;;;;;14.37;12.17;;;;;;;;;;5048267;28;20180;-62
2021/04/29 10:42:56;;;;;;;18.10;14.17;;;;;;;;;;5041975;28;20176;-63
2021/04/29 10:45:22;;;;;;;17.37;14.03;;;;;;;;;;5064050;28;20208;-64
2021/04/29 10:47:48;;;;;;;15.53;12.77;;;;;;;;;;5065502;28;20184;-63
2021/04/29 10:50:20;;;;;;;17.40;12.23;;;;;;;;;;5068521;28;20192;-62
2021/04/29 10:52:51;;;;;;;14.03;12.07;;;;;;;;;;5067489;28;20271;-62
2021/04/29 10:55:46;;;;;;;14.77;11.97;;;;;;;;;;5057080;28;20255;-64
2021/04/29 10:58:22;;;;;;;13.17;11.57;;;;;;;;;;5066979;28;20662;-65
2021/04/29 11:01:20;;;;;;;11.83;10.10;;;;;;;;;;5057178;28;20175;-63
2021/04/29 11:03:50;;;;;;;9.47;8.47;;;;;;;;;;5037983;28;20196;-62
2021/04/29 11:06:25;;;;;;;11.13;9.03;;;;;;;;;;5042956;28;20177;-62
2021/04/29 11:08:55;;;;;;;9.57;8.33;;;;;;;;;;5061382;28;20695;-62
2021/04/29 11:11:33;;;;;;;8.63;7.83;;;;;;;;;;5059986;28;20526;-62
2021/04/29 11:14:03;;;;;;;12.00;7.60;;;;;;;;;;5053201;28;20743;-63
2021/04/29 11:16:30;;;;;;;8.40;7.50;;;;;;;;;;5056151;28;20218;-63
2021/04/29 11:18:56;;;;;;;9.37;7.83;;;;;;;;;;5040862;28;20573;-63
2021/04/29 11:21:26;;;;;;;7.77;6.63;;;;;;;;;;5039306;28;20196;-65
2021/04/29 11:23:52;;;;;;;6.80;6.03;;;;;;;;;;5045243;28;20219;-63
2021/04/29 11:26:20;;;;;;;8.73;6.83;;;;;;;;;;5043615;28;20202;-62
2021/04/29 11:28:46;;;;;;;9.47;7.07;;;;;;;;;;5060321;28;20204;-62
2021/04/29 11:31:17;;;;;;;8.13;6.97;;;;;;;;;;5071428;28;20187;-63
2021/04/29 11:33:49;;;;;;;7.60;6.50;;;;;;;;;;5070941;28;20223;-65
2021/04/29 11:36:15;;;;;;;10.10;6.73;;;;;;;;;;5089216;28;20199;-62
2021/04/29 11:38:48;;;;;;;7.73;5.93;;;;;;;;;;5069668;28;20180;-62
2021/04/29 11:41:14;;;;;;;9.97;6.33;;;;;;;;;;5064464;28;20619;-62
2021/04/29 11:43:41;;;;;;;16.17;6.73;;;;;;;;;;5067890;28;20199;-61
2021/04/29 11:46:07;;;;;;;6.83;6.13;;;;;;;;;;5085999;28;20179;-60
2021/04/29 11:48:33;;;;;;;6.80;6.10;;;;;;;;;;5081828;28;20248;-64
2021/04/29 11:51:00;;;;;;;7.63;5.40;;;;;;;;;;5058275;28;20200;-63
2021/04/29 11:53:27;;;;;;;8.23;5.70;;;;;;;;;;5055756;28;20184;-62
2021/04/29 11:56:00;;;;;;;7.23;5.53;;;;;;;;;;5073335;28;20176;-64
2021/04/29 11:58:26;;;;;;;6.30;4.83;;;;;;;;;;5091095;28;20202;-63
2021/04/29 12:00:54;;;;;;;6.20;5.53;;;;;;;;;;5096700;28;20207;-62
2021/04/29 12:03:21;;;;;;;6.90;4.93;;;;;;;;;;5091912;28;20172;-63
2021/04/29 12:05:51;;;;;;;8.00;5.27;;;;;;;;;;5091781;28;20228;-62
2021/04/29 12:08:21;;;;;;;6.07;4.57;;;;;;;;;;5091294;28;20187;-63
2021/04/29 12:10:47;;;;;;;6.27;4.80;;;;;;;;;;5075591;28;20206;-63
2021/04/29 12:13:13;;;;;;;5.87;4.77;;;;;;;;;;5073774;28;20191;-65
2021/04/29 12:15:39;;;;;;;9.00;4.93;;;;;;;;;;5091596;28;20677;-63
2021/04/29 12:18:09;;;;;;;6.63;5.13;;;;;;;;;;5091082;28;20164;-63
2021/04/29 12:20:35;;;;;;;6.83;5.37;;;;;;;;;;5091358;28;20167;-62
2021/04/29 12:23:04;;;;;;;5.93;4.80;;;;;;;;;;5093873;28;20698;-63
2021/04/29 12:25:30;;;;;;;7.00;5.73;;;;;;;;;;5096359;28;20182;-63
2021/04/29 12:27:56;;;;;;;7.03;4.53;;;;;;;;;;5074777;28;20674;-65
2021/04/29 12:30:31;;;;;;;6.40;4.03;;;;;;;;;;5093260;28;20641;-63
2021/04/29 12:32:57;;;;;;;6.67;4.57;;;;;;;;;;5073757;28;20309;-63
2021/04/29 12:35:28;;;;;;;7.37;4.07;;;;;;;;;;5093606;28;20245;-64
2021/04/29 12:37:55;;;;;;;6.43;4.50;;;;;;;;;;5072687;28;20171;-63
2021/04/29 12:40:39;;;;;;;6.67;4.30;;;;;;;;;;5090680;28;20186;-62
2021/04/29 12:43:13;;;;;;;4.63;3.80;;;;;;;;;;5080585;28;20619;-63
2021/04/29 12:45:46;;;;;;;5.37;4.57;;;;;;;;;;5067682;28;20207;-63
2021/04/29 12:48:22;;;;;;;5.40;4.90;;;;;;;;;;5085812;28;20423;-64
2021/04/29 12:50:58;;;;;;;4.63;3.83;;;;;;;;;;5058893;28;20666;-63
2021/04/29 12:53:24;;;;;;;5.10;4.70;;;;;;;;;;5079157;28;20194;-65
2021/04/29 12:55:50;;;;;;;5.50;5.00;;;;;;;;;;5072846;28;20175;-63
2021/04/29 12:58:17;;;;;;;5.73;5.23;;;;;;;;;;5071675;28;20188;-63
2021/04/29 13:00:50;;;;;;;5.43;4.93;;;;;;;;;;5085654;28;20191;-63
2021/04/29 13:03:16;;;;;;;7.93;5.10;;;;;;;;;;5085636;28;20276;-65
2021/04/29 13:05:42;;;;;;;7.27;4.97;;;;;;;;;;5071841;28;20233;-64
2021/04/29 13:08:08;;;;;;;5.17;4.67;;;;;;;;;;5072221;28;20585;-63
2021/04/29 13:10:40;;;;;;;5.03;4.53;;;;;;;;;;5063323;28;20649;-64
2021/04/29 13:13:06;;;;;;;6.43;4.93;;;;;;;;;;5096819;28;20172;-64
2021/04/29 13:15:33;;;;;;;9.37;6.00;;;;;;;;;;5090737;28;20195;-63
2021/04/29 13:18:00;;;;;;;5.93;5.33;;;;;;;;;;5082759;28;20248;-63
2021/04/29 13:20:30;;;;;;;5.80;5.20;;;;;;;;;;5097129;28;20859;-63
2021/04/29 13:22:56;;;;;;;6.53;5.83;;;;;;;;;;5076077;28;20172;-64
2021/04/29 13:25:24;;;;;;;8.83;5.43;;;;;;;;;;5091811;28;20175;-63
2021/04/29 13:27:51;;;;;;;6.20;5.43;;;;;;;;;;5089524;28;20183;-63
2021/04/29 13:30:18;;;;;;;7.10;6.10;;;;;;;;;;5084246;28;20445;-63
2021/04/29 13:32:45;;;;;;;6.67;5.97;;;;;;;;;;5071758;28;20444;-63
2021/04/29 13:35:12;;;;;;;9.80;5.87;;;;;;;;;;5094025;28;20204;-64
2021/04/29 13:37:41;;;;;;;6.33;5.73;;;;;;;;;;5076296;28;20210;-63
2021/04/29 13:40:08;;;;;;;5.77;5.20;;;;;;;;;;5078810;28;20682;-64
2021/04/29 13:42:34;;;;;;;5.70;5.07;;;;;;;;;;5079799;28;20179;-64
2021/04/29 13:45:01;;;;;;;5.90;5.40;;;;;;;;;;5093763;28;20194;-63
2021/04/29 13:47:27;;;;;;;5.73;5.13;;;;;;;;;;5094520;28;20626;-62
2021/04/29 13:49:53;;;;;;;8.00;5.67;;;;;;;;;;5093815;28;20196;-62
2021/04/29 13:52:19;;;;;;;6.47;4.93;;;;;;;;;;5075843;28;20179;-62
2021/04/29 13:54:45;;;;;;;5.50;5.00;;;;;;;;;;5078757;28;20250;-63
2021/04/29 13:57:11;;;;;;;7.10;5.13;;;;;;;;;;5063811;28;20270;-64
2021/04/29 13:59:38;;;;;;;5.70;4.97;;;;;;;;;;5092912;28;20188;-62
2021/04/29 14:02:04;;;;;;;5.53;5.03;;;;;;;;;;5092629;28;20271;-63
2021/04/29 14:04:31;;;;;;;7.17;5.40;;;;;;;;;;5090141;28;20182;-63
2021/04/29 14:06:57;;;;;;;6.37;4.97;;;;;;;;;;5085194;28;20210;-63
2021/04/29 14:09:23;;;;;;;4.87;4.47;;;;;;;;;;5092010;28;20194;-63
2021/04/29 14:11:49;;;;;;;5.00;4.50;;;;;;;;;;5093146;28;20272;-63
2021/04/29 14:14:15;;;;;;;5.27;4.63;;;;;;;;;;5086826;28;20704;-63
2021/04/29 14:16:42;;;;;;;9.73;5.33;;;;;;;;;;5088458;28;21161;-63
2021/04/29 14:19:08;;;;;;;9.27;5.67;;;;;;;;;;5088836;28;20183;-63
2021/04/29 14:21:34;;;;;;;5.50;5.00;;;;;;;;;;5087789;28;20673;-63
2021/04/29 14:24:01;;;;;;;6.10;5.47;;;;;;;;;;5083198;28;20602;-63
2021/04/29 14:26:27;;;;;;;5.73;5.20;;;;;;;;;;5072220;28;20643;-63
2021/04/29 14:28:53;;;;;;;5.57;5.07;;;;;;;;;;5088271;28;20619;-63
2021/04/29 14:31:19;;;;;;;5.47;4.97;;;;;;;;;;5090170;28;20626;-65
2021/04/29 14:33:45;;;;;;;4.80;4.30;;;;;;;;;;5062866;28;20584;-63
2021/04/29 14:36:11;;;;;;;6.00;4.97;;;;;;;;;;5086547;28;20239;-63
2021/04/29 14:38:38;;;;;;;6.10;5.03;;;;;;;;;;5075198;28;20172;-64